sensor_id;sensor_type;location;lat;lon;timestamp;temperature;humidity
41722;DHT22;27407;24.142;-110.310;2023-03-26T00:01:12;34.80;42.50
41722;DHT22;27407;24.142;-110.310;2023-03-26T00:03:41;34.70;40.00
41722;DHT22;27407;24.142;-110.310;2023-03-26T00:06:12;35.30;43.60
41722;DHT22;27407;24.142;-110.310;2023-03-26T00:08:40;31.00;41.10
41722;DHT22;27407;24.142;-110.310;2023-03-26T00:11:08;34.30;41.60
41722;DHT22;27407;24.142;-110.310;2023-03-26T00:13:36;33.90;42.90
41722;DHT22;27407;24.142;-110.310;2023-03-26T00:16:03;31.30;42.20
41722;DHT22;27407;24.142;-110.310;2023-03-26T00:18:30;33.50;43.30
41722;DHT22;27407;24.142;-110.310;2023-03-26T00:21:02;33.70;39.10
41722;DHT22;27407;24.142;-110.310;2023-03-26T00:23:31;32.60;39.70
41722;DHT22;27407;24.142;-110.310;2023-03-26T00:28:25;32.20;44.40
41722;DHT22;27407;24.142;-110.310;2023-03-26T00:31:00;31.40;45.20
41722;DHT22;27407;24.142;-110.310;2023-03-26T00:33:27;33.20;45.80
41722;DHT22;27407;24.142;-110.310;2023-03-26T00:35:55;32.90;47.60
41722;DHT22;27407;24.142;-110.310;2023-03-26T00:38:24;32.30;47.10
41722;DHT22;27407;24.142;-110.310;2023-03-26T00:40:51;33.70;47.60
41722;DHT22;27407;24.142;-110.310;2023-03-26T00:43:19;33.20;48.30
41722;DHT22;27407;24.142;-110.310;2023-03-26T00:45:51;32.70;49.60
41722;DHT22;27407;24.142;-110.310;2023-03-26T00:48:20;32.40;50.30
41722;DHT22;27407;24.142;-110.310;2023-03-26T00:50:48;32.40;50.90
41722;DHT22;27407;24.142;-110.310;2023-03-26T00:53:17;32.50;51.20
41722;DHT22;27407;24.142;-110.310;2023-03-26T00:55:45;31.80;51.50
41722;DHT22;27407;24.142;-110.310;2023-03-26T00:58:13;31.20;52.20
41722;DHT22;27407;24.142;-110.310;2023-03-26T01:00:54;30.80;53.40
41722;DHT22;27407;24.142;-110.310;2023-03-26T01:03:26;29.80;53.60
41722;DHT22;27407;24.142;-110.310;2023-03-26T01:05:59;30.20;54.30
41722;DHT22;27407;24.142;-110.310;2023-03-26T01:08:44;29.40;53.10
41722;DHT22;27407;24.142;-110.310;2023-03-26T01:11:17;29.90;53.80
41722;DHT22;27407;24.142;-110.310;2023-03-26T01:13:53;28.90;53.90
41722;DHT22;27407;24.142;-110.310;2023-03-26T01:16:30;29.50;55.50
41722;DHT22;27407;24.142;-110.310;2023-03-26T01:18:59;29.20;55.90
41722;DHT22;27407;24.142;-110.310;2023-03-26T01:21:27;26.20;55.70
41722;DHT22;27407;24.142;-110.310;2023-03-26T01:24:02;27.80;57.90
41722;DHT22;27407;24.142;-110.310;2023-03-26T01:32:12;25.90;61.00
41722;DHT22;27407;24.142;-110.310;2023-03-26T01:38:01;25.30;63.40
41722;DHT22;27407;24.142;-110.310;2023-03-26T01:43:31;24.40;65.10
41722;DHT22;27407;24.142;-110.310;2023-03-26T01:46:05;24.40;65.00
41722;DHT22;27407;24.142;-110.310;2023-03-26T01:48:41;24.20;65.30
41722;DHT22;27407;24.142;-110.310;2023-03-26T01:51:10;24.10;66.00
41722;DHT22;27407;24.142;-110.310;2023-03-26T01:53:41;24.00;67.50
41722;DHT22;27407;24.142;-110.310;2023-03-26T01:59:27;23.60;68.70
41722;DHT22;27407;24.142;-110.310;2023-03-26T02:05:01;23.20;70.00
41722;DHT22;27407;24.142;-110.310;2023-03-26T02:10:31;22.60;72.60
41722;DHT22;27407;24.142;-110.310;2023-03-26T02:12:59;22.90;73.30
41722;DHT22;27407;24.142;-110.310;2023-03-26T02:15:26;23.00;73.80
41722;DHT22;27407;24.142;-110.310;2023-03-26T02:20:20;22.70;74.40
41722;DHT22;27407;24.142;-110.310;2023-03-26T02:22:47;22.70;74.70
41722;DHT22;27407;24.142;-110.310;2023-03-26T02:25:16;22.60;74.60
41722;DHT22;27407;24.142;-110.310;2023-03-26T02:27:44;22.60;74.30
41722;DHT22;27407;24.142;-110.310;2023-03-26T02:30:16;22.50;74.10
41722;DHT22;27407;24.142;-110.310;2023-03-26T02:32:43;22.40;74.20
41722;DHT22;27407;24.142;-110.310;2023-03-26T02:35:26;24.20;77.00
41722;DHT22;27407;24.142;-110.310;2023-03-26T02:42:50;22.20;76.80
41722;DHT22;27407;24.142;-110.310;2023-03-26T02:45:16;22.10;77.00
41722;DHT22;27407;24.142;-110.310;2023-03-26T02:52:38;20.80;78.00
41722;DHT22;27407;24.142;-110.310;2023-03-26T02:55:04;21.90;79.20
41722;DHT22;27407;24.142;-110.310;2023-03-26T02:57:32;20.70;79.10
41722;DHT22;27407;24.142;-110.310;2023-03-26T03:05:04;21.60;80.10
41722;DHT22;27407;24.142;-110.310;2023-03-26T03:12:27;21.40;80.90
41722;DHT22;27407;24.142;-110.310;2023-03-26T03:24:41;21.20;83.50
41722;DHT22;27407;24.142;-110.310;2023-03-26T03:27:09;21.10;84.50
41722;DHT22;27407;24.142;-110.310;2023-03-26T03:29:35;21.10;85.00
41722;DHT22;27407;24.142;-110.310;2023-03-26T03:32:02;22.80;87.10
41722;DHT22;27407;24.142;-110.310;2023-03-26T03:36:56;20.90;85.90
41722;DHT22;27407;24.142;-110.310;2023-03-26T03:41:49;20.80;85.30
41722;DHT22;27407;24.142;-110.310;2023-03-26T03:46:43;21.40;86.50
41722;DHT22;27407;24.142;-110.310;2023-03-26T04:01:23;20.50;88.40
41722;DHT22;27407;24.142;-110.310;2023-03-26T04:03:50;20.50;88.50
41722;DHT22;27407;24.142;-110.310;2023-03-26T04:06:17;20.20;88.50
41722;DHT22;27407;24.142;-110.310;2023-03-26T04:08:45;20.30;89.10
41722;DHT22;27407;24.142;-110.310;2023-03-26T04:11:13;20.40;89.10
41722;DHT22;27407;24.142;-110.310;2023-03-26T04:16:07;20.30;89.30
41722;DHT22;27407;24.142;-110.310;2023-03-26T04:18:34;20.80;89.90
41722;DHT22;27407;24.142;-110.310;2023-03-26T04:21:03;20.30;89.80
41722;DHT22;27407;24.142;-110.310;2023-03-26T04:23:31;20.00;90.00
41722;DHT22;27407;24.142;-110.310;2023-03-26T04:26:00;20.20;90.10
41722;DHT22;27407;24.142;-110.310;2023-03-26T04:28:41;20.10;90.10
41722;DHT22;27407;24.142;-110.310;2023-03-26T04:31:15;20.00;90.40
41722;DHT22;27407;24.142;-110.310;2023-03-26T04:33:44;19.90;90.60
41722;DHT22;27407;24.142;-110.310;2023-03-26T04:36:13;21.50;91.10
41722;DHT22;27407;24.142;-110.310;2023-03-26T04:38:44;19.70;90.30
41722;DHT22;27407;24.142;-110.310;2023-03-26T04:41:14;22.80;91.00
41722;DHT22;27407;24.142;-110.310;2023-03-26T04:43:41;19.90;90.10
41722;DHT22;27407;24.142;-110.310;2023-03-26T04:46:13;19.80;89.90
41722;DHT22;27407;24.142;-110.310;2023-03-26T04:53:35;19.70;90.20
41722;DHT22;27407;24.142;-110.310;2023-03-26T04:56:13;19.70;90.10
41722;DHT22;27407;24.142;-110.310;2023-03-26T05:01:15;19.60;89.40
41722;DHT22;27407;24.142;-110.310;2023-03-26T05:03:43;19.50;90.20
41722;DHT22;27407;24.142;-110.310;2023-03-26T05:06:11;19.50;90.40
41722;DHT22;27407;24.142;-110.310;2023-03-26T05:11:11;19.40;90.00
41722;DHT22;27407;24.142;-110.310;2023-03-26T05:13:38;19.40;89.70
41722;DHT22;27407;24.142;-110.310;2023-03-26T05:16:09;20.60;90.20
41722;DHT22;27407;24.142;-110.310;2023-03-26T05:18:36;19.30;89.90
41722;DHT22;27407;24.142;-110.310;2023-03-26T05:21:03;19.90;90.00
41722;DHT22;27407;24.142;-110.310;2023-03-26T05:30:52;19.60;89.20
41722;DHT22;27407;24.142;-110.310;2023-03-26T05:33:20;18.90;89.30
41722;DHT22;27407;24.142;-110.310;2023-03-26T05:38:14;19.40;89.70
41722;DHT22;27407;24.142;-110.310;2023-03-26T05:43:07;18.50;88.30
41722;DHT22;27407;24.142;-110.310;2023-03-26T06:00:15;16.60;86.30
41722;DHT22;27407;24.142;-110.310;2023-03-26T06:10:05;17.50;87.10
41722;DHT22;27407;24.142;-110.310;2023-03-26T06:14:59;17.50;85.80
41722;DHT22;27407;24.142;-110.310;2023-03-26T06:17:25;17.20;85.60
41722;DHT22;27407;24.142;-110.310;2023-03-26T06:34:32;17.10;86.40
41722;DHT22;27407;24.142;-110.310;2023-03-26T06:54:06;16.30;87.10
41722;DHT22;27407;24.142;-110.310;2023-03-26T06:56:33;16.50;86.20
41722;DHT22;27407;24.142;-110.310;2023-03-26T06:59:00;16.60;85.60
41722;DHT22;27407;24.142;-110.310;2023-03-26T07:11:13;16.70;87.40
41722;DHT22;27407;24.142;-110.310;2023-03-26T07:13:41;16.60;86.80
41722;DHT22;27407;24.142;-110.310;2023-03-26T07:21:02;16.30;86.10
41722;DHT22;27407;24.142;-110.310;2023-03-26T07:23:29;16.40;86.50
41722;DHT22;27407;24.142;-110.310;2023-03-26T07:25:56;16.10;86.70
41722;DHT22;27407;24.142;-110.310;2023-03-26T07:28:36;15.70;87.10
41722;DHT22;27407;24.142;-110.310;2023-03-26T07:33:44;15.90;87.40
41722;DHT22;27407;24.142;-110.310;2023-03-26T07:36:42;15.90;87.70
41722;DHT22;27407;24.142;-110.310;2023-03-26T07:41:50;15.50;86.50
41722;DHT22;27407;24.142;-110.310;2023-03-26T07:44:40;15.80;86.90
41722;DHT22;27407;24.142;-110.310;2023-03-26T07:47:32;15.60;86.80
41722;DHT22;27407;24.142;-110.310;2023-03-26T07:50:00;15.70;86.70
41722;DHT22;27407;24.142;-110.310;2023-03-26T07:52:28;15.10;86.10
41722;DHT22;27407;24.142;-110.310;2023-03-26T07:54:55;15.20;86.20
41722;DHT22;27407;24.142;-110.310;2023-03-26T08:00:21;14.50;86.40
41722;DHT22;27407;24.142;-110.310;2023-03-26T08:08:52;15.50;87.40
41722;DHT22;27407;24.142;-110.310;2023-03-26T08:14:58;15.20;87.50
41722;DHT22;27407;24.142;-110.310;2023-03-26T08:17:08;15.30;87.90
41722;DHT22;27407;24.142;-110.310;2023-03-26T08:22:25;15.20;89.00
41722;DHT22;27407;24.142;-110.310;2023-03-26T08:24:59;15.10;89.20
41722;DHT22;27407;24.142;-110.310;2023-03-26T08:30:25;15.20;89.40
41722;DHT22;27407;24.142;-110.310;2023-03-26T08:32:57;15.20;89.50
41722;DHT22;27407;24.142;-110.310;2023-03-26T08:35:25;15.00;89.10
41722;DHT22;27407;24.142;-110.310;2023-03-26T08:37:52;14.20;88.60
41722;DHT22;27407;24.142;-110.310;2023-03-26T08:43:32;15.00;90.00
41722;DHT22;27407;24.142;-110.310;2023-03-26T08:47:02;14.90;90.30
41722;DHT22;27407;24.142;-110.310;2023-03-26T08:57:54;14.10;90.90
41722;DHT22;27407;24.142;-110.310;2023-03-26T09:00:52;14.60;90.80
41722;DHT22;27407;24.142;-110.310;2023-03-26T09:09:29;14.60;90.30
41722;DHT22;27407;24.142;-110.310;2023-03-26T09:26:26;14.50;90.80
41722;DHT22;27407;24.142;-110.310;2023-03-26T09:40:17;14.90;91.30
41722;DHT22;27407;24.142;-110.310;2023-03-26T09:46:36;13.70;90.80
41722;DHT22;27407;24.142;-110.310;2023-03-26T09:49:31;14.10;90.80
41722;DHT22;27407;24.142;-110.310;2023-03-26T09:52:25;14.40;91.00
41722;DHT22;27407;24.142;-110.310;2023-03-26T09:58:14;14.30;91.10
41722;DHT22;27407;24.142;-110.310;2023-03-26T10:03:39;14.30;91.80
41722;DHT22;27407;24.142;-110.310;2023-03-26T10:25:55;14.30;93.60
41722;DHT22;27407;24.142;-110.310;2023-03-26T10:28:49;14.00;94.00
41722;DHT22;27407;24.142;-110.310;2023-03-26T10:56:56;13.50;97.00
41722;DHT22;27407;24.142;-110.310;2023-03-26T10:59:25;12.20;97.00
41722;DHT22;27407;24.142;-110.310;2023-03-26T11:02:28;13.60;97.80
41722;DHT22;27407;24.142;-110.310;2023-03-26T11:07:41;13.50;98.10
41722;DHT22;27407;24.142;-110.310;2023-03-26T11:15:29;13.50;99.30
41722;DHT22;27407;24.142;-110.310;2023-03-26T11:31:15;13.30;99.90
41722;DHT22;27407;24.142;-110.310;2023-03-26T11:33:49;13.30;99.90
41722;DHT22;27407;24.142;-110.310;2023-03-26T11:36:24;13.00;99.90
41722;DHT22;27407;24.142;-110.310;2023-03-26T11:38:55;11.90;99.90
41722;DHT22;27407;24.142;-110.310;2023-03-26T11:41:25;12.70;99.90
41722;DHT22;27407;24.142;-110.310;2023-03-26T11:44:18;13.80;99.90
41722;DHT22;27407;24.142;-110.310;2023-03-26T11:46:44;12.60;99.90
41722;DHT22;27407;24.142;-110.310;2023-03-26T11:49:13;12.60;99.90
41722;DHT22;27407;24.142;-110.310;2023-03-26T11:51:43;12.10;99.90
41722;DHT22;27407;24.142;-110.310;2023-03-26T11:54:12;12.40;99.90
41722;DHT22;27407;24.142;-110.310;2023-03-26T11:59:26;12.40;99.90
41722;DHT22;27407;24.142;-110.310;2023-03-26T12:07:33;13.20;99.90
41722;DHT22;27407;24.142;-110.310;2023-03-26T12:10:03;12.50;99.90
41722;DHT22;27407;24.142;-110.310;2023-03-26T12:12:41;12.60;99.90
41722;DHT22;27407;24.142;-110.310;2023-03-26T12:15:18;12.50;99.90
41722;DHT22;27407;24.142;-110.310;2023-03-26T12:17:48;12.70;99.90
41722;DHT22;27407;24.142;-110.310;2023-03-26T12:20:36;12.70;99.90
41722;DHT22;27407;24.142;-110.310;2023-03-26T12:23:04;12.70;99.90
41722;DHT22;27407;24.142;-110.310;2023-03-26T12:25:37;12.60;99.90
41722;DHT22;27407;24.142;-110.310;2023-03-26T12:28:18;12.70;99.90
41722;DHT22;27407;24.142;-110.310;2023-03-26T12:30:52;12.70;99.90
41722;DHT22;27407;24.142;-110.310;2023-03-26T12:33:33;12.60;99.90
41722;DHT22;27407;24.142;-110.310;2023-03-26T12:38:45;12.80;99.90
41722;DHT22;27407;24.142;-110.310;2023-03-26T12:41:15;13.40;99.90
41722;DHT22;27407;24.142;-110.310;2023-03-26T12:46:29;12.70;99.90
41722;DHT22;27407;24.142;-110.310;2023-03-26T12:49:04;12.70;99.90
41722;DHT22;27407;24.142;-110.310;2023-03-26T12:51:52;12.70;99.90
41722;DHT22;27407;24.142;-110.310;2023-03-26T12:54:33;11.90;99.90
41722;DHT22;27407;24.142;-110.310;2023-03-26T13:08:40;12.40;99.90
41722;DHT22;27407;24.142;-110.310;2023-03-26T13:14:15;12.50;99.90
41722;DHT22;27407;24.142;-110.310;2023-03-26T13:17:19;12.30;99.90
41722;DHT22;27407;24.142;-110.310;2023-03-26T13:20:05;12.80;99.90
41722;DHT22;27407;24.142;-110.310;2023-03-26T13:23:26;12.80;99.90
41722;DHT22;27407;24.142;-110.310;2023-03-26T13:31:30;13.20;99.90
41722;DHT22;27407;24.142;-110.310;2023-03-26T13:40:09;13.50;99.90
41722;DHT22;27407;24.142;-110.310;2023-03-26T13:42:52;13.30;99.90
41722;DHT22;27407;24.142;-110.310;2023-03-26T13:45:38;12.10;99.90
41722;DHT22;27407;24.142;-110.310;2023-03-26T13:48:22;14.60;99.90
41722;DHT22;27407;24.142;-110.310;2023-03-26T13:53:56;13.40;99.90
41722;DHT22;27407;24.142;-110.310;2023-03-26T13:56:30;13.70;99.90
41722;DHT22;27407;24.142;-110.310;2023-03-26T13:59:06;12.90;99.90
41722;DHT22;27407;24.142;-110.310;2023-03-26T14:01:40;13.90;99.90
41722;DHT22;27407;24.142;-110.310;2023-03-26T14:04:32;14.00;99.90
41722;DHT22;27407;24.142;-110.310;2023-03-26T14:07:21;14.10;99.90
41722;DHT22;27407;24.142;-110.310;2023-03-26T14:10:11;14.10;99.90
41722;DHT22;27407;24.142;-110.310;2023-03-26T14:12:58;14.00;99.90
41722;DHT22;27407;24.142;-110.310;2023-03-26T14:15:35;14.30;99.90
41722;DHT22;27407;24.142;-110.310;2023-03-26T14:20:59;14.40;99.40
41722;DHT22;27407;24.142;-110.310;2023-03-26T14:26:25;15.20;99.60
41722;DHT22;27407;24.142;-110.310;2023-03-26T14:29:06;14.60;99.80
41722;DHT22;27407;24.142;-110.310;2023-03-26T14:34:42;15.20;97.70
41722;DHT22;27407;24.142;-110.310;2023-03-26T14:37:30;15.60;97.40
41722;DHT22;27407;24.142;-110.310;2023-03-26T14:54:02;16.50;94.30
41722;DHT22;27407;24.142;-110.310;2023-03-26T14:57:03;16.60;93.90
41722;DHT22;27407;24.142;-110.310;2023-03-26T15:11:24;17.70;91.70
41722;DHT22;27407;24.142;-110.310;2023-03-26T15:49:39;20.20;91.30
41722;DHT22;27407;24.142;-110.310;2023-03-26T15:58:02;20.90;90.80
41722;DHT22;27407;24.142;-110.310;2023-03-26T16:00:37;20.80;90.90
41722;DHT22;27407;24.142;-110.310;2023-03-26T16:08:31;21.50;91.10
41722;DHT22;27407;24.142;-110.310;2023-03-26T16:11:02;21.80;90.90
41722;DHT22;27407;24.142;-110.310;2023-03-26T16:13:49;21.80;90.60
41722;DHT22;27407;24.142;-110.310;2023-03-26T16:16:22;22.40;90.40
41722;DHT22;27407;24.142;-110.310;2023-03-26T16:24:32;22.10;90.00
41722;DHT22;27407;24.142;-110.310;2023-03-26T16:27:06;22.20;90.00
41722;DHT22;27407;24.142;-110.310;2023-03-26T16:32:27;22.50;89.20
41722;DHT22;27407;24.142;-110.310;2023-03-26T16:35:00;22.70;88.40
41722;DHT22;27407;24.142;-110.310;2023-03-26T16:37:38;23.00;87.40
41722;DHT22;27407;24.142;-110.310;2023-03-26T16:43:18;23.10;86.60
41722;DHT22;27407;24.142;-110.310;2023-03-26T16:45:58;23.30;84.50
41722;DHT22;27407;24.142;-110.310;2023-03-26T16:53:50;23.80;82.40
41722;DHT22;27407;24.142;-110.310;2023-03-26T17:01:46;23.90;81.50
41722;DHT22;27407;24.142;-110.310;2023-03-26T17:04:18;24.30;82.10
41722;DHT22;27407;24.142;-110.310;2023-03-26T17:13:02;23.80;83.00
41722;DHT22;27407;24.142;-110.310;2023-03-26T17:15:55;23.80;82.80
41722;DHT22;27407;24.142;-110.310;2023-03-26T17:18:34;24.00;83.30
41722;DHT22;27407;24.142;-110.310;2023-03-26T17:21:17;24.10;84.20
41722;DHT22;27407;24.142;-110.310;2023-03-26T17:26:49;26.60;87.20
41722;DHT22;27407;24.142;-110.310;2023-03-26T17:29:59;24.10;84.10
41722;DHT22;27407;24.142;-110.310;2023-03-26T17:32:54;24.20;86.30
41722;DHT22;27407;24.142;-110.310;2023-03-26T17:35:37;24.20;84.70
41722;DHT22;27407;24.142;-110.310;2023-03-26T17:43:48;24.60;86.80
41722;DHT22;27407;24.142;-110.310;2023-03-26T17:48:48;24.50;87.00
41722;DHT22;27407;24.142;-110.310;2023-03-26T17:53:57;24.80;88.30
41722;DHT22;27407;24.142;-110.310;2023-03-26T17:56:27;24.80;88.40
41722;DHT22;27407;24.142;-110.310;2023-03-26T17:58:56;25.10;88.10
41722;DHT22;27407;24.142;-110.310;2023-03-26T18:01:45;25.00;87.20
41722;DHT22;27407;24.142;-110.310;2023-03-26T18:04:25;25.20;86.30
41722;DHT22;27407;24.142;-110.310;2023-03-26T18:17:46;25.60;82.30
41722;DHT22;27407;24.142;-110.310;2023-03-26T18:20:23;25.80;82.20
41722;DHT22;27407;24.142;-110.310;2023-03-26T18:22:51;25.80;81.70
41722;DHT22;27407;24.142;-110.310;2023-03-26T18:25:24;25.60;81.80
41722;DHT22;27407;24.142;-110.310;2023-03-26T18:27:56;25.80;82.40
41722;DHT22;27407;24.142;-110.310;2023-03-26T18:30:23;25.90;82.20
41722;DHT22;27407;24.142;-110.310;2023-03-26T18:33:01;26.00;83.40
41722;DHT22;27407;24.142;-110.310;2023-03-26T18:35:41;26.50;81.20
41722;DHT22;27407;24.142;-110.310;2023-03-26T18:38:23;26.60;80.00
41722;DHT22;27407;24.142;-110.310;2023-03-26T18:40:54;27.10;81.30
41722;DHT22;27407;24.142;-110.310;2023-03-26T18:43:22;26.90;82.20
41722;DHT22;27407;24.142;-110.310;2023-03-26T18:45:50;27.50;79.50
41722;DHT22;27407;24.142;-110.310;2023-03-26T18:48:23;27.00;79.30
41722;DHT22;27407;24.142;-110.310;2023-03-26T18:50:59;27.00;80.30
41722;DHT22;27407;24.142;-110.310;2023-03-26T18:53:28;28.30;84.30
41722;DHT22;27407;24.142;-110.310;2023-03-26T18:55:56;27.20;78.80
41722;DHT22;27407;24.142;-110.310;2023-03-26T19:00:51;26.90;80.20
41722;DHT22;27407;24.142;-110.310;2023-03-26T19:03:21;26.90;82.10
41722;DHT22;27407;24.142;-110.310;2023-03-26T19:05:54;26.90;81.30
41722;DHT22;27407;24.142;-110.310;2023-03-26T19:08:22;27.30;82.50
41722;DHT22;27407;24.142;-110.310;2023-03-26T19:10:50;27.00;81.50
41722;DHT22;27407;24.142;-110.310;2023-03-26T19:13:20;27.10;82.20
41722;DHT22;27407;24.142;-110.310;2023-03-26T19:15:51;27.00;82.00
41722;DHT22;27407;24.142;-110.310;2023-03-26T19:18:22;26.70;82.90
41722;DHT22;27407;24.142;-110.310;2023-03-26T19:20:56;26.90;83.40
41722;DHT22;27407;24.142;-110.310;2023-03-26T19:23:33;26.20;83.20
41722;DHT22;27407;24.142;-110.310;2023-03-26T19:26:03;26.70;82.70
41722;DHT22;27407;24.142;-110.310;2023-03-26T19:28:50;26.70;81.30
41722;DHT22;27407;24.142;-110.310;2023-03-26T19:31:31;26.80;82.20
41722;DHT22;27407;24.142;-110.310;2023-03-26T19:39:43;27.20;80.90
41722;DHT22;27407;24.142;-110.310;2023-03-26T19:42:26;27.30;80.50
41722;DHT22;27407;24.142;-110.310;2023-03-26T19:44:55;27.90;79.10
41722;DHT22;27407;24.142;-110.310;2023-03-26T19:47:25;27.90;77.20
41722;DHT22;27407;24.142;-110.310;2023-03-26T19:49:58;28.40;78.50
41722;DHT22;27407;24.142;-110.310;2023-03-26T19:52:32;27.30;79.80
41722;DHT22;27407;24.142;-110.310;2023-03-26T19:55:16;28.10;78.90
41722;DHT22;27407;24.142;-110.310;2023-03-26T19:57:46;27.60;80.00
41722;DHT22;27407;24.142;-110.310;2023-03-26T20:00:14;27.40;77.70
41722;DHT22;27407;24.142;-110.310;2023-03-26T20:02:42;27.90;78.60
41722;DHT22;27407;24.142;-110.310;2023-03-26T20:05:26;27.80;78.10
41722;DHT22;27407;24.142;-110.310;2023-03-26T20:07:59;28.50;79.80
41722;DHT22;27407;24.142;-110.310;2023-03-26T20:10:26;28.10;76.10
41722;DHT22;27407;24.142;-110.310;2023-03-26T20:12:53;28.20;78.40
41722;DHT22;27407;24.142;-110.310;2023-03-26T20:15:24;28.60;76.30
41722;DHT22;27407;24.142;-110.310;2023-03-26T20:17:52;25.10;72.00
41722;DHT22;27407;24.142;-110.310;2023-03-26T20:20:20;29.10;76.80
41722;DHT22;27407;24.142;-110.310;2023-03-26T20:22:50;29.20;72.80
41722;DHT22;27407;24.142;-110.310;2023-03-26T20:25:25;28.80;70.80
41722;DHT22;27407;24.142;-110.310;2023-03-26T20:30:21;30.10;73.30
41722;DHT22;27407;24.142;-110.310;2023-03-26T20:32:49;29.50;70.60
41722;DHT22;27407;24.142;-110.310;2023-03-26T20:35:25;29.10;69.20
41722;DHT22;27407;24.142;-110.310;2023-03-26T20:37:52;27.90;68.30
41722;DHT22;27407;24.142;-110.310;2023-03-26T20:40:19;29.20;69.40
41722;DHT22;27407;24.142;-110.310;2023-03-26T20:42:46;28.70;69.10
41722;DHT22;27407;24.142;-110.310;2023-03-26T20:45:17;28.90;68.30
41722;DHT22;27407;24.142;-110.310;2023-03-26T20:47:46;28.90;66.00
41722;DHT22;27407;24.142;-110.310;2023-03-26T20:50:16;28.70;66.20
41722;DHT22;27407;24.142;-110.310;2023-03-26T20:52:43;27.90;65.00
41722;DHT22;27407;24.142;-110.310;2023-03-26T20:55:13;28.80;65.50
41722;DHT22;27407;24.142;-110.310;2023-03-26T20:57:41;30.90;69.60
41722;DHT22;27407;24.142;-110.310;2023-03-26T21:00:10;29.20;67.40
41722;DHT22;27407;24.142;-110.310;2023-03-26T21:02:45;30.00;66.80
41722;DHT22;27407;24.142;-110.310;2023-03-26T21:05:12;30.00;65.60
41722;DHT22;27407;24.142;-110.310;2023-03-26T21:07:44;29.90;68.60
41722;DHT22;27407;24.142;-110.310;2023-03-26T21:10:13;29.90;70.10
41722;DHT22;27407;24.142;-110.310;2023-03-26T21:15:13;29.60;70.90
41722;DHT22;27407;24.142;-110.310;2023-03-26T21:17:41;29.80;71.20
41722;DHT22;27407;24.142;-110.310;2023-03-26T21:20:08;29.20;68.60
41722;DHT22;27407;24.142;-110.310;2023-03-26T21:26:04;29.60;70.00
41722;DHT22;27407;24.142;-110.310;2023-03-26T21:28:52;29.60;70.10
41722;DHT22;27407;24.142;-110.310;2023-03-26T21:31:34;28.90;68.30
41722;DHT22;27407;24.142;-110.310;2023-03-26T21:34:10;29.20;69.90
41722;DHT22;27407;24.142;-110.310;2023-03-26T21:36:38;29.00;70.80
41722;DHT22;27407;24.142;-110.310;2023-03-26T21:39:06;29.00;69.60
41722;DHT22;27407;24.142;-110.310;2023-03-26T21:41:53;28.80;69.80
41722;DHT22;27407;24.142;-110.310;2023-03-26T21:44:20;28.40;72.50
41722;DHT22;27407;24.142;-110.310;2023-03-26T21:46:47;28.80;74.20
41722;DHT22;27407;24.142;-110.310;2023-03-26T21:49:15;28.00;72.90
41722;DHT22;27407;24.142;-110.310;2023-03-26T21:51:43;27.60;72.40
41722;DHT22;27407;24.142;-110.310;2023-03-26T21:54:27;29.10;72.70
41722;DHT22;27407;24.142;-110.310;2023-03-26T22:00:05;29.40;72.20
41722;DHT22;27407;24.142;-110.310;2023-03-26T22:05:33;30.10;69.80
41722;DHT22;27407;24.142;-110.310;2023-03-26T22:08:05;30.00;70.60
41722;DHT22;27407;24.142;-110.310;2023-03-26T22:10:32;29.90;71.80
41722;DHT22;27407;24.142;-110.310;2023-03-26T22:12:58;29.30;72.70
41722;DHT22;27407;24.142;-110.310;2023-03-26T22:15:25;29.40;72.90
41722;DHT22;27407;24.142;-110.310;2023-03-26T22:18:00;31.20;72.60
41722;DHT22;27407;24.142;-110.310;2023-03-26T22:22:54;29.30;69.30
41722;DHT22;27407;24.142;-110.310;2023-03-26T22:25:21;30.80;71.00
41722;DHT22;27407;24.142;-110.310;2023-03-26T22:27:50;30.90;71.80
41722;DHT22;27407;24.142;-110.310;2023-03-26T22:30:17;30.80;70.40
41722;DHT22;27407;24.142;-110.310;2023-03-26T22:32:45;31.10;69.00
41722;DHT22;27407;24.142;-110.310;2023-03-26T22:37:39;31.40;71.50
41722;DHT22;27407;24.142;-110.310;2023-03-26T22:40:07;30.30;71.30
41722;DHT22;27407;24.142;-110.310;2023-03-26T22:42:34;30.80;71.10
41722;DHT22;27407;24.142;-110.310;2023-03-26T22:45:02;30.70;70.70
41722;DHT22;27407;24.142;-110.310;2023-03-26T22:47:29;29.70;70.30
41722;DHT22;27407;24.142;-110.310;2023-03-26T22:49:58;30.60;70.70
41722;DHT22;27407;24.142;-110.310;2023-03-26T22:52:26;30.30;70.10
41722;DHT22;27407;24.142;-110.310;2023-03-26T22:54:52;29.80;70.40
41722;DHT22;27407;24.142;-110.310;2023-03-26T22:57:19;33.70;73.60
41722;DHT22;27407;24.142;-110.310;2023-03-26T22:59:47;30.10;69.40
41722;DHT22;27407;24.142;-110.310;2023-03-26T23:02:13;29.90;68.60
41722;DHT22;27407;24.142;-110.310;2023-03-26T23:04:42;30.30;68.40
41722;DHT22;27407;24.142;-110.310;2023-03-26T23:07:09;30.50;67.40
41722;DHT22;27407;24.142;-110.310;2023-03-26T23:09:36;31.50;66.20
41722;DHT22;27407;24.142;-110.310;2023-03-26T23:12:03;30.60;67.30
41722;DHT22;27407;24.142;-110.310;2023-03-26T23:14:30;30.70;66.20
41722;DHT22;27407;24.142;-110.310;2023-03-26T23:16:57;29.30;68.50
41722;DHT22;27407;24.142;-110.310;2023-03-26T23:19:24;30.00;67.40
41722;DHT22;27407;24.142;-110.310;2023-03-26T23:24:18;29.70;67.70
41722;DHT22;27407;24.142;-110.310;2023-03-26T23:26:44;30.50;68.30
41722;DHT22;27407;24.142;-110.310;2023-03-26T23:29:11;29.60;66.60
41722;DHT22;27407;24.142;-110.310;2023-03-26T23:31:38;30.20;67.40
41722;DHT22;27407;24.142;-110.310;2023-03-26T23:34:07;30.50;66.10
41722;DHT22;27407;24.142;-110.310;2023-03-26T23:39:01;31.00;65.40
41722;DHT22;27407;24.142;-110.310;2023-03-26T23:43:56;30.80;64.70
41722;DHT22;27407;24.142;-110.310;2023-03-26T23:46:30;30.20;65.40
41722;DHT22;27407;24.142;-110.310;2023-03-26T23:49:00;29.90;64.80
41722;DHT22;27407;24.142;-110.310;2023-03-26T23:51:30;30.30;65.30
41722;DHT22;27407;24.142;-110.310;2023-03-26T23:53:58;30.40;64.80
41722;DHT22;27407;24.142;-110.310;2023-03-26T23:56:25;31.00;64.70
